• Join FlightAware (Why Join?)
  • Login
  • US Flag 
09:13AM EDT


 

Airport Tracker/Info


-or-


 

Live Flight TrackerFlight Track Log ✈ N9231H ✈ 19-Jul-2013 ✈ KTMB - KSEF

Flight Track Log - Related Links

Times and Time Zones

All times are in EDT time to prevent confusion due to time zone crossing. See the N9231H flight status page for this flight to view local times or setup timezone preferences in your user account.

Time Position Orientation Groundspeed Altitude Reporting Facility
EDT Latitude Longitude Course Direction KTS MPH feet Rate Location/Type
08:11AM 26.2386 -81.1556 307° West 118 136 3,100  Level Miami Center
08:12AM 26.2586 -81.1817 311° West 123 142 3,000 -60 Descending Miami Center
08:13AM 26.2808 -81.2081 313° West 118 136 3,000  Level Miami Center
08:14AM 26.3031 -81.2364 311° West 118 136 3,000  Level Miami Center
08:15AM 26.3272 -81.2653 313° West 123 142 3,100  Climbing Miami Center
08:16AM 26.3577 -81.3532 307° West  Level FlightAware Approximate
08:16AM 26.3453 -81.2936 305° West 123 142 3,100  Level Miami Center
08:17AM 26.3672 -81.3200 313° West 123 142 3,100  Level Miami Center
08:18AM 26.3914 -81.3533 309° West 123 142 3,100  Level Miami Center
08:19AM 26.4133 -81.3819 311° West 123 142 3,100  Level Miami Center
08:20AM 26.4378 -81.4061 318° Northwest 123 142 3,100 -60 Level Miami Center
08:21AM 26.4669 -81.4072 358° North 104 120 3,000  Descending Miami Center
08:22AM 26.4983 -81.4061 North 104 120 3,100  Climbing Miami Center
08:23AM 26.5297 -81.4028 North 104 120 3,100 -60 Level Miami Center
08:25AM 26.5988 -81.3993 North  Level FlightAware Approximate
08:32AM 26.8509 -81.3867 North  Level FlightAware Approximate
08:33AM 26.8869 -81.3848 North  Level FlightAware Approximate
08:34AM 26.9227 -81.3813 17° North  Level FlightAware Approximate
08:35AM 26.9573 -81.3698 17° North  Level FlightAware Approximate
08:35AM 26.8897 -81.3747 North 109 125 3,000  Level Miami Center
08:36AM 26.9929 -81.3654 North  Level FlightAware Approximate
08:36AM 26.9147 -81.3711 North 114 131 3,100  Level Miami Center
08:37AM 27.0290 -81.3637 North  Level FlightAware Approximate
08:37AM 26.9461 -81.3700 North 114 131 3,100  Level Miami Center
08:38AM 27.0650 -81.3620 North  Level FlightAware Approximate
08:38AM 26.9775 -81.3667 North 109 125 3,100  Level Miami Center
08:39AM 27.1010 -81.3603 North  Level FlightAware Approximate
08:39AM 27.0069 -81.3653 North 101 116 3,100  Level Miami Center
08:40AM 27.1371 -81.3586 North  Level FlightAware Approximate
08:40AM 27.0342 -81.3642 North 107 123 3,100  Level Miami Center
08:41AM 27.0675 -81.3583 North 107 123 3,200  Climbing Miami Center
08:42AM 27.0947 -81.3594 358° North 102 117 3,100 -60 Descending Miami Center
08:43AM 27.1239 -81.3583 North 107 123 3,100  Level Miami Center
08:44AM 27.1575 -81.3594 358° North 102 117 3,200  Climbing Miami Center
08:45AM 27.1886 -81.3583 North 102 117 3,200 -180 Level Miami Center
08:46AM 27.2181 -81.3572 North 102 117 2,900 -300 Descending Miami Center
08:47AM 27.2411 -81.3533 North 102 117 2,700 -240 Descending Miami Center